sensor_id;sensor_type;location;lat;lon;timestamp;P1;durP1;ratioP1;P2;durP2;ratioP2
24467;SDS011;12634;50.852;5.676;2024-01-10T00:02:08;10.00;;;9.30;;
24467;SDS011;12634;50.852;5.676;2024-01-10T00:04:35;8.98;;;8.48;;
24467;SDS011;12634;50.852;5.676;2024-01-10T00:07:02;11.48;;;9.10;;
24467;SDS011;12634;50.852;5.676;2024-01-10T00:09:30;10.48;;;9.73;;
24467;SDS011;12634;50.852;5.676;2024-01-10T00:11:57;9.20;;;8.70;;
24467;SDS011;12634;50.852;5.676;2024-01-10T00:14:24;9.52;;;8.98;;
24467;SDS011;12634;50.852;5.676;2024-01-10T00:16:53;9.55;;;9.02;;
24467;SDS011;12634;50.852;5.676;2024-01-10T00:19:20;11.15;;;10.25;;
24467;SDS011;12634;50.852;5.676;2024-01-10T00:21:47;12.02;;;11.15;;
24467;SDS011;12634;50.852;5.676;2024-01-10T00:24:14;11.15;;;10.50;;
24467;SDS011;12634;50.852;5.676;2024-01-10T00:26:41;11.27;;;10.63;;
24467;SDS011;12634;50.852;5.676;2024-01-10T00:29:08;12.52;;;11.82;;
24467;SDS011;12634;50.852;5.676;2024-01-10T00:31:36;10.43;;;9.90;;
24467;SDS011;12634;50.852;5.676;2024-01-10T00:34:04;11.45;;;10.60;;
24467;SDS011;12634;50.852;5.676;2024-01-10T00:36:32;15.07;;;11.57;;
24467;SDS011;12634;50.852;5.676;2024-01-10T00:38:59;11.45;;;10.55;;
24467;SDS011;12634;50.852;5.676;2024-01-10T00:41:26;14.05;;;13.07;;
24467;SDS011;12634;50.852;5.676;2024-01-10T00:43:53;11.32;;;10.32;;
24467;SDS011;12634;50.852;5.676;2024-01-10T00:46:20;11.63;;;10.57;;
24467;SDS011;12634;50.852;5.676;2024-01-10T00:48:47;9.77;;;9.27;;
24467;SDS011;12634;50.852;5.676;2024-01-10T00:51:16;12.48;;;11.18;;
24467;SDS011;12634;50.852;5.676;2024-01-10T00:53:43;11.63;;;10.95;;
24467;SDS011;12634;50.852;5.676;2024-01-10T00:56:10;10.43;;;9.82;;
24467;SDS011;12634;50.852;5.676;2024-01-10T00:58:37;10.20;;;9.63;;
24467;SDS011;12634;50.852;5.676;2024-01-10T01:01:05;11.30;;;10.48;;
24467;SDS011;12634;50.852;5.676;2024-01-10T01:03:32;11.07;;;10.48;;
24467;SDS011;12634;50.852;5.676;2024-01-10T01:05:59;10.10;;;9.50;;
24467;SDS011;12634;50.852;5.676;2024-01-10T01:08:29;10.23;;;9.73;;
24467;SDS011;12634;50.852;5.676;2024-01-10T01:10:56;10.30;;;9.57;;
24467;SDS011;12634;50.852;5.676;2024-01-10T01:13:23;10.80;;;9.90;;
24467;SDS011;12634;50.852;5.676;2024-01-10T01:15:50;11.48;;;10.73;;
24467;SDS011;12634;50.852;5.676;2024-01-10T01:18:18;9.90;;;9.40;;
24467;SDS011;12634;50.852;5.676;2024-01-10T01:20:45;10.98;;;10.35;;
24467;SDS011;12634;50.852;5.676;2024-01-10T01:23:15;10.55;;;9.68;;
24467;SDS011;12634;50.852;5.676;2024-01-10T01:25:44;13.32;;;12.15;;
24467;SDS011;12634;50.852;5.676;2024-01-10T01:28:11;10.80;;;10.05;;
24467;SDS011;12634;50.852;5.676;2024-01-10T01:30:38;12.07;;;11.23;;
24467;SDS011;12634;50.852;5.676;2024-01-10T01:33:05;11.05;;;10.23;;
24467;SDS011;12634;50.852;5.676;2024-01-10T01:35:32;11.73;;;10.82;;
24467;SDS011;12634;50.852;5.676;2024-01-10T01:37:59;11.70;;;10.80;;
24467;SDS011;12634;50.852;5.676;2024-01-10T01:40:26;11.35;;;10.55;;
24467;SDS011;12634;50.852;5.676;2024-01-10T01:42:55;11.23;;;10.32;;
24467;SDS011;12634;50.852;5.676;2024-01-10T01:45:23;11.07;;;10.38;;
24467;SDS011;12634;50.852;5.676;2024-01-10T01:47:50;11.27;;;10.57;;
24467;SDS011;12634;50.852;5.676;2024-01-10T01:50:17;11.48;;;10.85;;
24467;SDS011;12634;50.852;5.676;2024-01-10T01:52:45;10.60;;;10.00;;
24467;SDS011;12634;50.852;5.676;2024-01-10T01:55:12;12.85;;;12.02;;
24467;SDS011;12634;50.852;5.676;2024-01-10T01:57:40;10.65;;;10.05;;
24467;SDS011;12634;50.852;5.676;2024-01-10T02:00:09;11.02;;;10.25;;
24467;SDS011;12634;50.852;5.676;2024-01-10T02:02:36;12.45;;;11.32;;
24467;SDS011;12634;50.852;5.676;2024-01-10T02:05:05;10.30;;;9.80;;
24467;SDS011;12634;50.852;5.676;2024-01-10T02:07:32;11.18;;;10.05;;
24467;SDS011;12634;50.852;5.676;2024-01-10T02:09:59;11.07;;;10.43;;
24467;SDS011;12634;50.852;5.676;2024-01-10T02:12:26;12.18;;;11.48;;
24467;SDS011;12634;50.852;5.676;2024-01-10T02:14:54;12.55;;;11.82;;
24467;SDS011;12634;50.852;5.676;2024-01-10T02:17:22;10.70;;;10.00;;
24467;SDS011;12634;50.852;5.676;2024-01-10T02:19:59;12.02;;;11.32;;
24467;SDS011;12634;50.852;5.676;2024-01-10T02:22:34;11.45;;;10.77;;
24467;SDS011;12634;50.852;5.676;2024-01-10T02:25:03;10.10;;;9.50;;
24467;SDS011;12634;50.852;5.676;2024-01-10T02:27:31;11.32;;;10.63;;
24467;SDS011;12634;50.852;5.676;2024-01-10T02:29:58;12.00;;;11.25;;
24467;SDS011;12634;50.852;5.676;2024-01-10T02:32:27;11.02;;;10.30;;
24467;SDS011;12634;50.852;5.676;2024-01-10T02:34:55;11.50;;;10.80;;
24467;SDS011;12634;50.852;5.676;2024-01-10T02:37:22;11.27;;;10.45;;
24467;SDS011;12634;50.852;5.676;2024-01-10T02:39:49;12.20;;;11.48;;
24467;SDS011;12634;50.852;5.676;2024-01-10T02:42:18;11.95;;;11.05;;
24467;SDS011;12634;50.852;5.676;2024-01-10T02:44:45;10.00;;;9.50;;
24467;SDS011;12634;50.852;5.676;2024-01-10T02:47:12;12.13;;;11.35;;
24467;SDS011;12634;50.852;5.676;2024-01-10T02:49:39;11.02;;;10.43;;
24467;SDS011;12634;50.852;5.676;2024-01-10T02:52:06;12.13;;;11.25;;
24467;SDS011;12634;50.852;5.676;2024-01-10T02:54:33;11.55;;;10.65;;
24467;SDS011;12634;50.852;5.676;2024-01-10T02:57:00;11.65;;;10.95;;
24467;SDS011;12634;50.852;5.676;2024-01-10T02:59:29;10.80;;;10.20;;
24467;SDS011;12634;50.852;5.676;2024-01-10T03:01:56;11.10;;;10.02;;
24467;SDS011;12634;50.852;5.676;2024-01-10T03:04:24;10.27;;;9.65;;
24467;SDS011;12634;50.852;5.676;2024-01-10T03:06:51;10.23;;;9.63;;
24467;SDS011;12634;50.852;5.676;2024-01-10T03:09:18;12.68;;;11.77;;
24467;SDS011;12634;50.852;5.676;2024-01-10T03:11:46;10.27;;;9.77;;
24467;SDS011;12634;50.852;5.676;2024-01-10T03:14:13;10.80;;;9.75;;
24467;SDS011;12634;50.852;5.676;2024-01-10T03:16:41;11.80;;;11.05;;
24467;SDS011;12634;50.852;5.676;2024-01-10T03:19:09;9.82;;;9.32;;
24467;SDS011;12634;50.852;5.676;2024-01-10T03:21:36;11.45;;;10.55;;
24467;SDS011;12634;50.852;5.676;2024-01-10T03:24:03;11.15;;;10.45;;
24467;SDS011;12634;50.852;5.676;2024-01-10T03:26:31;11.10;;;10.10;;
24467;SDS011;12634;50.852;5.676;2024-01-10T03:28:58;11.15;;;10.35;;
24467;SDS011;12634;50.852;5.676;2024-01-10T03:31:27;12.13;;;11.43;;
24467;SDS011;12634;50.852;5.676;2024-01-10T03:33:56;10.13;;;9.52;;
24467;SDS011;12634;50.852;5.676;2024-01-10T03:36:24;12.63;;;11.63;;
24467;SDS011;12634;50.852;5.676;2024-01-10T03:38:51;11.85;;;10.88;;
24467;SDS011;12634;50.852;5.676;2024-01-10T03:41:19;10.48;;;9.88;;
24467;SDS011;12634;50.852;5.676;2024-01-10T03:43:47;11.95;;;11.00;;
24467;SDS011;12634;50.852;5.676;2024-01-10T03:46:15;11.40;;;10.70;;
24467;SDS011;12634;50.852;5.676;2024-01-10T03:48:43;11.82;;;10.88;;
24467;SDS011;12634;50.852;5.676;2024-01-10T03:51:15;11.88;;;10.88;;
24467;SDS011;12634;50.852;5.676;2024-01-10T03:53:43;11.18;;;10.57;;
24467;SDS011;12634;50.852;5.676;2024-01-10T03:56:11;10.38;;;9.77;;
24467;SDS011;12634;50.852;5.676;2024-01-10T03:58:39;11.88;;;11.07;;
24467;SDS011;12634;50.852;5.676;2024-01-10T04:01:07;10.15;;;9.57;;
24467;SDS011;12634;50.852;5.676;2024-01-10T04:03:35;9.80;;;9.27;;
24467;SDS011;12634;50.852;5.676;2024-01-10T04:06:03;10.57;;;9.63;;
24467;SDS011;12634;50.852;5.676;2024-01-10T04:08:32;9.55;;;9.05;;
24467;SDS011;12634;50.852;5.676;2024-01-10T04:10:59;10.57;;;9.88;;
24467;SDS011;12634;50.852;5.676;2024-01-10T04:13:28;12.18;;;11.32;;
24467;SDS011;12634;50.852;5.676;2024-01-10T04:15:55;10.45;;;9.73;;
24467;SDS011;12634;50.852;5.676;2024-01-10T04:18:22;10.55;;;9.90;;
24467;SDS011;12634;50.852;5.676;2024-01-10T04:20:49;10.63;;;10.05;;
24467;SDS011;12634;50.852;5.676;2024-01-10T04:23:17;12.63;;;10.52;;
24467;SDS011;12634;50.852;5.676;2024-01-10T04:25:46;11.45;;;10.70;;
24467;SDS011;12634;50.852;5.676;2024-01-10T04:28:13;10.82;;;10.23;;
24467;SDS011;12634;50.852;5.676;2024-01-10T04:30:41;11.88;;;11.07;;
24467;SDS011;12634;50.852;5.676;2024-01-10T04:33:09;10.05;;;9.30;;
24467;SDS011;12634;50.852;5.676;2024-01-10T04:35:36;9.40;;;8.90;;
24467;SDS011;12634;50.852;5.676;2024-01-10T04:38:03;10.43;;;9.75;;
24467;SDS011;12634;50.852;5.676;2024-01-10T04:40:30;11.45;;;10.63;;
24467;SDS011;12634;50.852;5.676;2024-01-10T04:42:59;10.50;;;9.73;;
24467;SDS011;12634;50.852;5.676;2024-01-10T04:45:26;11.18;;;10.52;;
24467;SDS011;12634;50.852;5.676;2024-01-10T04:47:53;11.90;;;10.52;;
24467;SDS011;12634;50.852;5.676;2024-01-10T04:50:20;10.45;;;9.85;;
24467;SDS011;12634;50.852;5.676;2024-01-10T04:52:47;11.30;;;10.55;;
24467;SDS011;12634;50.852;5.676;2024-01-10T04:55:14;11.75;;;10.95;;
24467;SDS011;12634;50.852;5.676;2024-01-10T04:57:42;11.20;;;10.55;;
24467;SDS011;12634;50.852;5.676;2024-01-10T05:00:11;12.13;;;11.45;;
24467;SDS011;12634;50.852;5.676;2024-01-10T05:02:38;10.93;;;10.32;;
24467;SDS011;12634;50.852;5.676;2024-01-10T05:05:06;11.00;;;10.27;;
24467;SDS011;12634;50.852;5.676;2024-01-10T05:07:33;12.15;;;11.32;;
24467;SDS011;12634;50.852;5.676;2024-01-10T05:10:00;11.25;;;10.35;;
24467;SDS011;12634;50.852;5.676;2024-01-10T05:12:27;9.38;;;8.80;;
24467;SDS011;12634;50.852;5.676;2024-01-10T05:14:55;9.57;;;9.05;;
24467;SDS011;12634;50.852;5.676;2024-01-10T05:17:23;11.40;;;10.68;;
24467;SDS011;12634;50.852;5.676;2024-01-10T05:19:50;9.63;;;9.13;;
24467;SDS011;12634;50.852;5.676;2024-01-10T05:22:18;11.32;;;10.63;;
24467;SDS011;12634;50.852;5.676;2024-01-10T05:24:47;10.23;;;9.52;;
24467;SDS011;12634;50.852;5.676;2024-01-10T05:27:14;10.82;;;10.20;;
24467;SDS011;12634;50.852;5.676;2024-01-10T05:29:41;11.65;;;10.95;;
24467;SDS011;12634;50.852;5.676;2024-01-10T05:32:08;10.20;;;9.52;;
24467;SDS011;12634;50.852;5.676;2024-01-10T05:34:37;10.55;;;9.90;;
24467;SDS011;12634;50.852;5.676;2024-01-10T05:37:04;10.68;;;10.07;;
24467;SDS011;12634;50.852;5.676;2024-01-10T05:39:31;10.75;;;10.05;;
24467;SDS011;12634;50.852;5.676;2024-01-10T05:41:58;11.45;;;10.65;;
24467;SDS011;12634;50.852;5.676;2024-01-10T05:44:27;10.73;;;10.02;;
24467;SDS011;12634;50.852;5.676;2024-01-10T05:46:55;10.00;;;9.40;;
24467;SDS011;12634;50.852;5.676;2024-01-10T05:49:24;10.75;;;9.88;;
24467;SDS011;12634;50.852;5.676;2024-01-10T05:51:53;11.68;;;10.98;;
24467;SDS011;12634;50.852;5.676;2024-01-10T05:54:20;9.85;;;9.35;;
24467;SDS011;12634;50.852;5.676;2024-01-10T05:56:47;12.77;;;12.00;;
24467;SDS011;12634;50.852;5.676;2024-01-10T05:59:14;11.75;;;11.02;;
24467;SDS011;12634;50.852;5.676;2024-01-10T06:01:42;10.70;;;10.10;;
24467;SDS011;12634;50.852;5.676;2024-01-10T06:04:09;11.02;;;10.32;;
24467;SDS011;12634;50.852;5.676;2024-01-10T06:06:36;13.27;;;12.38;;
24467;SDS011;12634;50.852;5.676;2024-01-10T06:09:05;11.85;;;11.02;;
24467;SDS011;12634;50.852;5.676;2024-01-10T06:11:40;10.98;;;10.32;;
24467;SDS011;12634;50.852;5.676;2024-01-10T06:14:08;12.50;;;11.80;;
24467;SDS011;12634;50.852;5.676;2024-01-10T06:16:35;10.32;;;9.75;;
24467;SDS011;12634;50.852;5.676;2024-01-10T06:19:02;12.52;;;11.73;;
24467;SDS011;12634;50.852;5.676;2024-01-10T06:21:30;10.15;;;9.65;;
24467;SDS011;12634;50.852;5.676;2024-01-10T06:23:57;11.77;;;10.98;;
24467;SDS011;12634;50.852;5.676;2024-01-10T06:26:25;12.60;;;11.80;;
24467;SDS011;12634;50.852;5.676;2024-01-10T06:28:53;12.55;;;11.75;;
24467;SDS011;12634;50.852;5.676;2024-01-10T06:31:20;12.45;;;11.55;;
24467;SDS011;12634;50.852;5.676;2024-01-10T06:33:47;12.02;;;11.32;;
24467;SDS011;12634;50.852;5.676;2024-01-10T06:36:14;11.07;;;10.48;;
24467;SDS011;12634;50.852;5.676;2024-01-10T06:38:41;16.05;;;12.15;;
24467;SDS011;12634;50.852;5.676;2024-01-10T06:41:08;11.48;;;10.75;;
24467;SDS011;12634;50.852;5.676;2024-01-10T06:43:37;12.40;;;11.70;;
24467;SDS011;12634;50.852;5.676;2024-01-10T06:46:05;10.55;;;9.95;;
24467;SDS011;12634;50.852;5.676;2024-01-10T06:48:33;11.15;;;10.50;;
24467;SDS011;12634;50.852;5.676;2024-01-10T06:51:00;10.45;;;9.95;;
24467;SDS011;12634;50.852;5.676;2024-01-10T06:53:27;11.00;;;10.30;;
24467;SDS011;12634;50.852;5.676;2024-01-10T06:55:54;10.30;;;9.75;;
24467;SDS011;12634;50.852;5.676;2024-01-10T06:58:21;12.23;;;11.48;;
24467;SDS011;12634;50.852;5.676;2024-01-10T07:00:50;11.82;;;11.10;;
24467;SDS011;12634;50.852;5.676;2024-01-10T07:03:17;11.77;;;11.07;;
24467;SDS011;12634;50.852;5.676;2024-01-10T07:05:44;11.38;;;10.68;;
24467;SDS011;12634;50.852;5.676;2024-01-10T07:08:11;10.95;;;10.27;;
24467;SDS011;12634;50.852;5.676;2024-01-10T07:10:42;11.45;;;10.75;;
24467;SDS011;12634;50.852;5.676;2024-01-10T07:13:09;12.05;;;11.35;;
24467;SDS011;12634;50.852;5.676;2024-01-10T07:15:36;10.48;;;9.85;;
24467;SDS011;12634;50.852;5.676;2024-01-10T07:18:06;31.58;;;11.95;;
24467;SDS011;12634;50.852;5.676;2024-01-10T07:20:33;10.98;;;10.35;;
24467;SDS011;12634;50.852;5.676;2024-01-10T07:23:00;11.52;;;10.88;;
24467;SDS011;12634;50.852;5.676;2024-01-10T07:25:27;11.85;;;11.10;;
24467;SDS011;12634;50.852;5.676;2024-01-10T07:27:55;10.90;;;10.30;;
24467;SDS011;12634;50.852;5.676;2024-01-10T07:30:22;11.00;;;10.20;;
24467;SDS011;12634;50.852;5.676;2024-01-10T07:32:49;11.25;;;10.55;;
24467;SDS011;12634;50.852;5.676;2024-01-10T07:35:18;12.63;;;11.65;;
24467;SDS011;12634;50.852;5.676;2024-01-10T07:37:46;11.55;;;10.70;;
24467;SDS011;12634;50.852;5.676;2024-01-10T07:40:13;10.63;;;9.77;;
24467;SDS011;12634;50.852;5.676;2024-01-10T07:42:40;11.52;;;10.82;;
24467;SDS011;12634;50.852;5.676;2024-01-10T07:45:09;12.38;;;11.57;;
24467;SDS011;12634;50.852;5.676;2024-01-10T07:47:37;11.57;;;10.88;;
24467;SDS011;12634;50.852;5.676;2024-01-10T07:50:05;11.27;;;10.50;;
24467;SDS011;12634;50.852;5.676;2024-01-10T07:52:34;12.05;;;11.13;;
24467;SDS011;12634;50.852;5.676;2024-01-10T07:55:01;10.50;;;9.90;;
24467;SDS011;12634;50.852;5.676;2024-01-10T07:57:30;11.32;;;10.63;;
24467;SDS011;12634;50.852;5.676;2024-01-10T07:59:57;13.05;;;12.23;;
24467;SDS011;12634;50.852;5.676;2024-01-10T08:02:24;11.00;;;10.13;;
24467;SDS011;12634;50.852;5.676;2024-01-10T08:04:52;10.95;;;10.25;;
24467;SDS011;12634;50.852;5.676;2024-01-10T08:07:19;10.07;;;9.43;;
24467;SDS011;12634;50.852;5.676;2024-01-10T08:09:47;11.27;;;10.45;;
24467;SDS011;12634;50.852;5.676;2024-01-10T08:12:15;10.65;;;10.05;;
24467;SDS011;12634;50.852;5.676;2024-01-10T08:14:42;10.77;;;10.13;;
24467;SDS011;12634;50.852;5.676;2024-01-10T08:17:11;10.32;;;9.43;;
24467;SDS011;12634;50.852;5.676;2024-01-10T08:19:38;8.57;;;8.07;;
24467;SDS011;12634;50.852;5.676;2024-01-10T08:22:05;10.90;;;9.95;;
24467;SDS011;12634;50.852;5.676;2024-01-10T08:24:33;9.70;;;9.07;;
24467;SDS011;12634;50.852;5.676;2024-01-10T08:27:02;12.05;;;10.57;;
24467;SDS011;12634;50.852;5.676;2024-01-10T08:29:29;9.70;;;8.93;;
24467;SDS011;12634;50.852;5.676;2024-01-10T08:31:56;9.57;;;8.95;;
24467;SDS011;12634;50.852;5.676;2024-01-10T08:34:23;9.40;;;8.85;;
24467;SDS011;12634;50.852;5.676;2024-01-10T08:36:52;9.38;;;8.88;;
24467;SDS011;12634;50.852;5.676;2024-01-10T08:39:19;8.60;;;8.10;;
24467;SDS011;12634;50.852;5.676;2024-01-10T08:41:47;11.00;;;10.10;;
24467;SDS011;12634;50.852;5.676;2024-01-10T08:44:15;9.55;;;8.85;;
24467;SDS011;12634;50.852;5.676;2024-01-10T08:46:43;9.82;;;9.13;;
24467;SDS011;12634;50.852;5.676;2024-01-10T08:49:10;10.27;;;9.50;;
24467;SDS011;12634;50.852;5.676;2024-01-10T08:51:37;10.98;;;10.07;;
24467;SDS011;12634;50.852;5.676;2024-01-10T08:54:06;10.82;;;10.05;;
24467;SDS011;12634;50.852;5.676;2024-01-10T08:56:34;11.07;;;10.18;;
24467;SDS011;12634;50.852;5.676;2024-01-10T08:59:01;10.50;;;9.70;;
24467;SDS011;12634;50.852;5.676;2024-01-10T09:01:30;9.32;;;8.73;;
24467;SDS011;12634;50.852;5.676;2024-01-10T09:03:57;10.43;;;9.48;;
24467;SDS011;12634;50.852;5.676;2024-01-10T09:06:24;10.55;;;9.70;;
24467;SDS011;12634;50.852;5.676;2024-01-10T09:08:52;8.65;;;8.02;;
24467;SDS011;12634;50.852;5.676;2024-01-10T09:11:19;9.10;;;8.30;;
24467;SDS011;12634;50.852;5.676;2024-01-10T09:13:46;9.07;;;8.48;;
24467;SDS011;12634;50.852;5.676;2024-01-10T09:16:14;9.27;;;8.68;;
24467;SDS011;12634;50.852;5.676;2024-01-10T09:18:43;9.05;;;8.15;;
24467;SDS011;12634;50.852;5.676;2024-01-10T09:21:10;8.95;;;8.10;;
24467;SDS011;12634;50.852;5.676;2024-01-10T09:23:37;8.00;;;7.40;;
24467;SDS011;12634;50.852;5.676;2024-01-10T09:26:04;7.47;;;6.88;;
24467;SDS011;12634;50.852;5.676;2024-01-10T09:28:32;8.00;;;7.50;;
24467;SDS011;12634;50.852;5.676;2024-01-10T09:30:59;9.38;;;8.70;;
24467;SDS011;12634;50.852;5.676;2024-01-10T09:33:26;8.02;;;7.40;;
24467;SDS011;12634;50.852;5.676;2024-01-10T09:35:55;8.68;;;8.02;;
24467;SDS011;12634;50.852;5.676;2024-01-10T09:38:22;8.98;;;8.38;;
24467;SDS011;12634;50.852;5.676;2024-01-10T09:40:49;10.70;;;8.15;;
24467;SDS011;12634;50.852;5.676;2024-01-10T09:43:17;8.23;;;7.53;;
24467;SDS011;12634;50.852;5.676;2024-01-10T09:45:46;10.05;;;8.05;;
24467;SDS011;12634;50.852;5.676;2024-01-10T09:48:16;7.28;;;6.68;;
24467;SDS011;12634;50.852;5.676;2024-01-10T09:50:43;7.25;;;6.32;;
24467;SDS011;12634;50.852;5.676;2024-01-10T09:53:15;7.82;;;7.10;;
24467;SDS011;12634;50.852;5.676;2024-01-10T09:55:50;6.65;;;5.95;;
24467;SDS011;12634;50.852;5.676;2024-01-10T09:58:17;9.32;;;7.03;;
24467;SDS011;12634;50.852;5.676;2024-01-10T10:00:45;7.30;;;6.70;;
24467;SDS011;12634;50.852;5.676;2024-01-10T10:03:12;7.70;;;6.75;;
24467;SDS011;12634;50.852;5.676;2024-01-10T10:05:43;7.38;;;6.78;;
24467;SDS011;12634;50.852;5.676;2024-01-10T10:08:13;7.07;;;6.28;;
24467;SDS011;12634;50.852;5.676;2024-01-10T10:10:44;7.28;;;6.68;;
24467;SDS011;12634;50.852;5.676;2024-01-10T10:13:23;7.07;;;6.47;;
24467;SDS011;12634;50.852;5.676;2024-01-10T10:15:57;8.90;;;8.20;;
24467;SDS011;12634;50.852;5.676;2024-01-10T10:18:25;8.55;;;7.80;;
24467;SDS011;12634;50.852;5.676;2024-01-10T10:21:06;8.88;;;8.07;;
24467;SDS011;12634;50.852;5.676;2024-01-10T10:23:36;11.18;;;7.22;;
24467;SDS011;12634;50.852;5.676;2024-01-10T10:26:10;9.00;;;7.70;;
24467;SDS011;12634;50.852;5.676;2024-01-10T10:28:44;9.90;;;8.13;;
24467;SDS011;12634;50.852;5.676;2024-01-10T10:31:11;32.85;;;7.38;;
24467;SDS011;12634;50.852;5.676;2024-01-10T10:33:38;8.80;;;7.93;;
24467;SDS011;12634;50.852;5.676;2024-01-10T10:36:06;7.15;;;6.55;;
24467;SDS011;12634;50.852;5.676;2024-01-10T10:38:34;11.95;;;8.00;;
24467;SDS011;12634;50.852;5.676;2024-01-10T10:41:03;9.00;;;7.38;;
24467;SDS011;12634;50.852;5.676;2024-01-10T10:43:35;7.15;;;6.65;;
24467;SDS011;12634;50.852;5.676;2024-01-10T10:46:04;8.15;;;7.40;;
24467;SDS011;12634;50.852;5.676;2024-01-10T10:48:32;6.97;;;6.53;;
24467;SDS011;12634;50.852;5.676;2024-01-10T10:51:03;7.68;;;6.65;;
24467;SDS011;12634;50.852;5.676;2024-01-10T10:53:33;9.85;;;7.85;;
24467;SDS011;12634;50.852;5.676;2024-01-10T10:56:03;8.45;;;6.88;;
24467;SDS011;12634;50.852;5.676;2024-01-10T10:58:34;6.93;;;6.35;;
24467;SDS011;12634;50.852;5.676;2024-01-10T11:01:11;8.30;;;7.45;;
24467;SDS011;12634;50.852;5.676;2024-01-10T11:03:39;12.43;;;8.13;;
24467;SDS011;12634;50.852;5.676;2024-01-10T11:06:08;8.70;;;6.78;;
24467;SDS011;12634;50.852;5.676;2024-01-10T11:08:36;6.75;;;6.13;;
24467;SDS011;12634;50.852;5.676;2024-01-10T11:14:06;7.53;;;6.57;;
24467;SDS011;12634;50.852;5.676;2024-01-10T11:19:49;10.60;;;6.95;;
24467;SDS011;12634;50.852;5.676;2024-01-10T11:22:39;7.97;;;7.10;;
24467;SDS011;12634;50.852;5.676;2024-01-10T11:25:18;30.48;;;7.00;;
24467;SDS011;12634;50.852;5.676;2024-01-10T11:27:48;9.55;;;6.25;;
24467;SDS011;12634;50.852;5.676;2024-01-10T11:30:29;8.32;;;6.20;;
24467;SDS011;12634;50.852;5.676;2024-01-10T11:36:07;8.13;;;5.70;;
24467;SDS011;12634;50.852;5.676;2024-01-10T11:38:40;7.53;;;6.40;;
24467;SDS011;12634;50.852;5.676;2024-01-10T11:41:10;8.85;;;6.03;;
24467;SDS011;12634;50.852;5.676;2024-01-10T11:43:39;6.97;;;6.38;;
24467;SDS011;12634;50.852;5.676;2024-01-10T11:46:06;6.97;;;6.32;;
24467;SDS011;12634;50.852;5.676;2024-01-10T11:48:37;7.20;;;6.50;;
24467;SDS011;12634;50.852;5.676;2024-01-10T11:51:05;7.22;;;6.50;;
24467;SDS011;12634;50.852;5.676;2024-01-10T11:53:43;8.57;;;7.40;;
24467;SDS011;12634;50.852;5.676;2024-01-10T11:56:12;6.60;;;5.97;;
24467;SDS011;12634;50.852;5.676;2024-01-10T11:58:56;7.60;;;6.85;;
24467;SDS011;12634;50.852;5.676;2024-01-10T12:01:29;8.48;;;7.60;;
24467;SDS011;12634;50.852;5.676;2024-01-10T12:03:56;6.50;;;5.68;;
24467;SDS011;12634;50.852;5.676;2024-01-10T12:06:25;8.00;;;7.20;;
24467;SDS011;12634;50.852;5.676;2024-01-10T12:08:52;10.20;;;8.27;;
24467;SDS011;12634;50.852;5.676;2024-01-10T12:11:19;11.32;;;7.72;;
24467;SDS011;12634;50.852;5.676;2024-01-10T12:13:46;7.93;;;6.50;;
24467;SDS011;12634;50.852;5.676;2024-01-10T12:16:15;9.02;;;7.95;;
24467;SDS011;12634;50.852;5.676;2024-01-10T12:18:43;7.55;;;6.30;;
24467;SDS011;12634;50.852;5.676;2024-01-10T12:21:10;8.65;;;6.82;;
24467;SDS011;12634;50.852;5.676;2024-01-10T12:23:37;8.68;;;6.82;;
24467;SDS011;12634;50.852;5.676;2024-01-10T12:26:07;7.82;;;7.03;;
24467;SDS011;12634;50.852;5.676;2024-01-10T12:28:37;13.43;;;8.32;;
24467;SDS011;12634;50.852;5.676;2024-01-10T12:31:05;13.95;;;7.97;;
24467;SDS011;12634;50.852;5.676;2024-01-10T12:33:35;12.63;;;7.20;;
24467;SDS011;12634;50.852;5.676;2024-01-10T12:36:06;15.02;;;7.57;;
24467;SDS011;12634;50.852;5.676;2024-01-10T12:38:34;11.02;;;7.25;;
24467;SDS011;12634;50.852;5.676;2024-01-10T12:41:03;12.18;;;7.07;;
24467;SDS011;12634;50.852;5.676;2024-01-10T12:43:31;10.30;;;7.43;;
24467;SDS011;12634;50.852;5.676;2024-01-10T12:46:04;7.32;;;6.57;;
24467;SDS011;12634;50.852;5.676;2024-01-10T12:48:33;9.18;;;6.68;;
24467;SDS011;12634;50.852;5.676;2024-01-10T12:51:03;12.05;;;7.65;;
24467;SDS011;12634;50.852;5.676;2024-01-10T12:53:33;13.00;;;6.72;;
24467;SDS011;12634;50.852;5.676;2024-01-10T12:56:01;10.63;;;7.05;;
24467;SDS011;12634;50.852;5.676;2024-01-10T12:58:29;12.13;;;7.85;;
24467;SDS011;12634;50.852;5.676;2024-01-10T13:00:57;14.93;;;7.72;;
24467;SDS011;12634;50.852;5.676;2024-01-10T13:03:25;10.02;;;7.15;;
24467;SDS011;12634;50.852;5.676;2024-01-10T13:05:53;8.38;;;6.90;;
24467;SDS011;12634;50.852;5.676;2024-01-10T13:08:21;11.65;;;8.13;;
24467;SDS011;12634;50.852;5.676;2024-01-10T13:10:48;11.20;;;6.90;;
24467;SDS011;12634;50.852;5.676;2024-01-10T13:13:15;9.82;;;6.78;;
24467;SDS011;12634;50.852;5.676;2024-01-10T13:15:44;11.13;;;8.32;;
24467;SDS011;12634;50.852;5.676;2024-01-10T13:18:11;16.08;;;7.60;;
24467;SDS011;12634;50.852;5.676;2024-01-10T13:20:40;9.02;;;7.13;;
24467;SDS011;12634;50.852;5.676;2024-01-10T13:23:09;10.20;;;6.50;;
24467;SDS011;12634;50.852;5.676;2024-01-10T13:25:37;13.25;;;7.70;;
24467;SDS011;12634;50.852;5.676;2024-01-10T13:28:04;11.18;;;7.45;;
24467;SDS011;12634;50.852;5.676;2024-01-10T13:30:32;11.77;;;8.32;;
24467;SDS011;12634;50.852;5.676;2024-01-10T13:32:59;12.55;;;7.40;;
24467;SDS011;12634;50.852;5.676;2024-01-10T13:35:26;19.52;;;7.40;;
24467;SDS011;12634;50.852;5.676;2024-01-10T13:37:54;13.30;;;7.95;;
24467;SDS011;12634;50.852;5.676;2024-01-10T13:40:22;10.77;;;7.72;;
24467;SDS011;12634;50.852;5.676;2024-01-10T13:42:52;11.43;;;7.65;;
24467;SDS011;12634;50.852;5.676;2024-01-10T13:45:20;9.35;;;6.82;;
24467;SDS011;12634;50.852;5.676;2024-01-10T13:47:47;17.13;;;7.28;;
24467;SDS011;12634;50.852;5.676;2024-01-10T13:50:15;11.82;;;7.90;;
24467;SDS011;12634;50.852;5.676;2024-01-10T13:52:42;14.68;;;7.70;;
24467;SDS011;12634;50.852;5.676;2024-01-10T13:55:09;14.38;;;7.75;;
24467;SDS011;12634;50.852;5.676;2024-01-10T13:57:38;10.32;;;7.50;;
24467;SDS011;12634;50.852;5.676;2024-01-10T14:00:06;14.48;;;8.52;;
24467;SDS011;12634;50.852;5.676;2024-01-10T14:02:34;14.10;;;7.93;;
24467;SDS011;12634;50.852;5.676;2024-01-10T14:05:02;10.75;;;7.55;;
24467;SDS011;12634;50.852;5.676;2024-01-10T14:07:31;7.30;;;6.53;;
24467;SDS011;12634;50.852;5.676;2024-01-10T14:09:59;12.48;;;7.38;;
24467;SDS011;12634;50.852;5.676;2024-01-10T14:12:27;13.45;;;7.85;;
24467;SDS011;12634;50.852;5.676;2024-01-10T14:14:56;12.85;;;8.10;;
24467;SDS011;12634;50.852;5.676;2024-01-10T14:17:25;11.95;;;7.10;;
24467;SDS011;12634;50.852;5.676;2024-01-10T14:19:52;8.65;;;7.47;;
24467;SDS011;12634;50.852;5.676;2024-01-10T14:22:19;14.25;;;8.10;;
24467;SDS011;12634;50.852;5.676;2024-01-10T14:24:49;12.52;;;7.07;;
24467;SDS011;12634;50.852;5.676;2024-01-10T14:27:16;11.80;;;7.13;;
24467;SDS011;12634;50.852;5.676;2024-01-10T14:29:43;10.05;;;7.63;;
24467;SDS011;12634;50.852;5.676;2024-01-10T14:32:13;12.82;;;8.65;;
24467;SDS011;12634;50.852;5.676;2024-01-10T14:34:40;10.98;;;8.15;;
24467;SDS011;12634;50.852;5.676;2024-01-10T14:37:07;19.42;;;7.75;;
24467;SDS011;12634;50.852;5.676;2024-01-10T14:39:35;12.75;;;7.82;;
24467;SDS011;12634;50.852;5.676;2024-01-10T14:42:04;9.48;;;7.60;;
24467;SDS011;12634;50.852;5.676;2024-01-10T14:44:34;9.43;;;7.70;;
24467;SDS011;12634;50.852;5.676;2024-01-10T14:47:01;13.65;;;7.28;;
24467;SDS011;12634;50.852;5.676;2024-01-10T14:49:30;12.00;;;8.13;;